sensor_id;sensor_type;location;lat;lon;timestamp;P1;durP1;ratioP1;P2;durP2;ratioP2
46447;SDS011;32145;50.390;30.778;2023-12-20T00:01:40;13.73;;;7.78;;
46447;SDS011;32145;50.390;30.778;2023-12-20T00:04:36;12.45;;;7.80;;
46447;SDS011;32145;50.390;30.778;2023-12-20T00:07:32;13.80;;;7.35;;
46447;SDS011;32145;50.390;30.778;2023-12-20T00:10:28;12.93;;;7.53;;
46447;SDS011;32145;50.390;30.778;2023-12-20T00:13:25;12.27;;;7.60;;
46447;SDS011;32145;50.390;30.778;2023-12-20T00:16:22;12.32;;;7.70;;
46447;SDS011;32145;50.390;30.778;2023-12-20T00:19:19;13.30;;;7.43;;
46447;SDS011;32145;50.390;30.778;2023-12-20T00:22:13;13.80;;;7.55;;
46447;SDS011;32145;50.390;30.778;2023-12-20T00:25:07;13.73;;;7.57;;
46447;SDS011;32145;50.390;30.778;2023-12-20T00:28:02;11.98;;;7.35;;
46447;SDS011;32145;50.390;30.778;2023-12-20T00:30:57;13.40;;;7.80;;
46447;SDS011;32145;50.390;30.778;2023-12-20T00:33:53;12.45;;;7.80;;
46447;SDS011;32145;50.390;30.778;2023-12-20T00:36:47;12.95;;;7.60;;
46447;SDS011;32145;50.390;30.778;2023-12-20T00:39:43;13.18;;;8.00;;
46447;SDS011;32145;50.390;30.778;2023-12-20T00:42:39;14.25;;;7.68;;
46447;SDS011;32145;50.390;30.778;2023-12-20T00:45:34;13.02;;;7.35;;
46447;SDS011;32145;50.390;30.778;2023-12-20T00:48:28;11.93;;;7.35;;
46447;SDS011;32145;50.390;30.778;2023-12-20T00:51:24;14.23;;;7.63;;
46447;SDS011;32145;50.390;30.778;2023-12-20T00:54:18;12.80;;;7.53;;
46447;SDS011;32145;50.390;30.778;2023-12-20T00:57:12;13.57;;;7.30;;
46447;SDS011;32145;50.390;30.778;2023-12-20T01:00:07;12.05;;;7.47;;
46447;SDS011;32145;50.390;30.778;2023-12-20T01:03:02;13.20;;;7.38;;
46447;SDS011;32145;50.390;30.778;2023-12-20T01:05:57;11.77;;;7.07;;
46447;SDS011;32145;50.390;30.778;2023-12-20T01:08:54;13.23;;;6.65;;
46447;SDS011;32145;50.390;30.778;2023-12-20T01:11:51;11.65;;;6.43;;
46447;SDS011;32145;50.390;30.778;2023-12-20T01:14:47;14.32;;;7.40;;
46447;SDS011;32145;50.390;30.778;2023-12-20T01:17:43;11.55;;;7.05;;
46447;SDS011;32145;50.390;30.778;2023-12-20T01:20:39;11.98;;;6.93;;
46447;SDS011;32145;50.390;30.778;2023-12-20T01:23:36;12.43;;;6.70;;
46447;SDS011;32145;50.390;30.778;2023-12-20T01:26:33;12.15;;;6.70;;
46447;SDS011;32145;50.390;30.778;2023-12-20T01:29:28;11.20;;;6.38;;
46447;SDS011;32145;50.390;30.778;2023-12-20T01:32:24;9.15;;;6.00;;
46447;SDS011;32145;50.390;30.778;2023-12-20T01:35:20;18.90;;;6.90;;
46447;SDS011;32145;50.390;30.778;2023-12-20T01:38:16;13.27;;;6.47;;
46447;SDS011;32145;50.390;30.778;2023-12-20T01:41:12;11.80;;;5.90;;
46447;SDS011;32145;50.390;30.778;2023-12-20T01:44:10;13.00;;;6.57;;
46447;SDS011;32145;50.390;30.778;2023-12-20T01:47:07;12.60;;;6.20;;
46447;SDS011;32145;50.390;30.778;2023-12-20T01:50:05;11.27;;;6.28;;
46447;SDS011;32145;50.390;30.778;2023-12-20T01:53:03;9.37;;;5.67;;
46447;SDS011;32145;50.390;30.778;2023-12-20T01:56:01;11.18;;;5.85;;
46447;SDS011;32145;50.390;30.778;2023-12-20T01:58:58;11.13;;;6.45;;
46447;SDS011;32145;50.390;30.778;2023-12-20T02:01:56;11.35;;;6.55;;
46447;SDS011;32145;50.390;30.778;2023-12-20T02:04:52;9.68;;;5.88;;
46447;SDS011;32145;50.390;30.778;2023-12-20T02:07:48;10.10;;;5.75;;
46447;SDS011;32145;50.390;30.778;2023-12-20T02:10:45;10.02;;;6.13;;
46447;SDS011;32145;50.390;30.778;2023-12-20T02:13:41;11.90;;;6.18;;
46447;SDS011;32145;50.390;30.778;2023-12-20T02:16:37;13.05;;;6.07;;
46447;SDS011;32145;50.390;30.778;2023-12-20T02:19:35;10.45;;;6.38;;
46447;SDS011;32145;50.390;30.778;2023-12-20T02:22:33;11.68;;;6.35;;
46447;SDS011;32145;50.390;30.778;2023-12-20T02:25:28;11.38;;;6.20;;
46447;SDS011;32145;50.390;30.778;2023-12-20T02:28:24;12.63;;;6.25;;
46447;SDS011;32145;50.390;30.778;2023-12-20T02:31:20;13.25;;;6.22;;
46447;SDS011;32145;50.390;30.778;2023-12-20T02:34:17;9.75;;;5.70;;
46447;SDS011;32145;50.390;30.778;2023-12-20T02:37:13;11.15;;;6.18;;
46447;SDS011;32145;50.390;30.778;2023-12-20T02:40:11;11.50;;;6.38;;
46447;SDS011;32145;50.390;30.778;2023-12-20T02:43:05;11.63;;;6.43;;
46447;SDS011;32145;50.390;30.778;2023-12-20T02:45:59;12.50;;;6.70;;
46447;SDS011;32145;50.390;30.778;2023-12-20T02:48:53;12.02;;;6.22;;
46447;SDS011;32145;50.390;30.778;2023-12-20T02:51:48;11.85;;;6.68;;
46447;SDS011;32145;50.390;30.778;2023-12-20T02:54:42;11.13;;;6.40;;
46447;SDS011;32145;50.390;30.778;2023-12-20T02:57:38;11.43;;;6.53;;
46447;SDS011;32145;50.390;30.778;2023-12-20T03:00:32;14.93;;;7.22;;
46447;SDS011;32145;50.390;30.778;2023-12-20T03:03:26;12.23;;;6.45;;
46447;SDS011;32145;50.390;30.778;2023-12-20T03:06:20;12.18;;;6.88;;
46447;SDS011;32145;50.390;30.778;2023-12-20T03:09:15;11.80;;;6.80;;
46447;SDS011;32145;50.390;30.778;2023-12-20T03:12:10;11.50;;;6.85;;
46447;SDS011;32145;50.390;30.778;2023-12-20T03:15:06;11.85;;;7.05;;
46447;SDS011;32145;50.390;30.778;2023-12-20T03:18:01;12.73;;;7.57;;
46447;SDS011;32145;50.390;30.778;2023-12-20T03:20:55;13.88;;;7.30;;
46447;SDS011;32145;50.390;30.778;2023-12-20T03:23:49;12.60;;;7.45;;
46447;SDS011;32145;50.390;30.778;2023-12-20T03:26:43;15.38;;;7.55;;
46447;SDS011;32145;50.390;30.778;2023-12-20T03:29:38;14.90;;;7.55;;
46447;SDS011;32145;50.390;30.778;2023-12-20T03:32:35;12.32;;;7.22;;
46447;SDS011;32145;50.390;30.778;2023-12-20T03:35:32;14.85;;;7.55;;
46447;SDS011;32145;50.390;30.778;2023-12-20T03:38:29;16.08;;;7.80;;
46447;SDS011;32145;50.390;30.778;2023-12-20T03:41:25;15.60;;;7.53;;
46447;SDS011;32145;50.390;30.778;2023-12-20T03:44:21;14.65;;;7.82;;
46447;SDS011;32145;50.390;30.778;2023-12-20T03:47:15;14.25;;;7.50;;
46447;SDS011;32145;50.390;30.778;2023-12-20T03:50:11;13.25;;;7.55;;
46447;SDS011;32145;50.390;30.778;2023-12-20T03:53:06;14.82;;;7.93;;
46447;SDS011;32145;50.390;30.778;2023-12-20T03:56:00;14.85;;;7.80;;
46447;SDS011;32145;50.390;30.778;2023-12-20T03:58:54;13.30;;;7.53;;
46447;SDS011;32145;50.390;30.778;2023-12-20T04:01:48;14.02;;;8.10;;
46447;SDS011;32145;50.390;30.778;2023-12-20T04:04:44;15.45;;;8.38;;
46447;SDS011;32145;50.390;30.778;2023-12-20T04:07:42;14.38;;;7.70;;
46447;SDS011;32145;50.390;30.778;2023-12-20T04:10:39;13.50;;;7.55;;
46447;SDS011;32145;50.390;30.778;2023-12-20T04:13:35;14.30;;;8.27;;
46447;SDS011;32145;50.390;30.778;2023-12-20T04:16:31;15.63;;;8.80;;
46447;SDS011;32145;50.390;30.778;2023-12-20T04:19:25;15.95;;;8.25;;
46447;SDS011;32145;50.390;30.778;2023-12-20T04:22:20;14.15;;;8.38;;
46447;SDS011;32145;50.390;30.778;2023-12-20T04:25:17;17.17;;;8.05;;
46447;SDS011;32145;50.390;30.778;2023-12-20T04:28:14;18.38;;;8.38;;
46447;SDS011;32145;50.390;30.778;2023-12-20T04:31:10;14.68;;;8.45;;
46447;SDS011;32145;50.390;30.778;2023-12-20T04:34:06;14.50;;;8.95;;
46447;SDS011;32145;50.390;30.778;2023-12-20T04:37:02;17.70;;;8.82;;
46447;SDS011;32145;50.390;30.778;2023-12-20T04:39:59;15.60;;;8.75;;
46447;SDS011;32145;50.390;30.778;2023-12-20T04:42:57;14.18;;;8.10;;
46447;SDS011;32145;50.390;30.778;2023-12-20T04:45:53;19.27;;;9.63;;
46447;SDS011;32145;50.390;30.778;2023-12-20T04:48:50;14.25;;;8.40;;
46447;SDS011;32145;50.390;30.778;2023-12-20T04:51:46;14.13;;;8.15;;
46447;SDS011;32145;50.390;30.778;2023-12-20T04:54:42;16.83;;;9.18;;
46447;SDS011;32145;50.390;30.778;2023-12-20T04:57:38;15.18;;;8.07;;
46447;SDS011;32145;50.390;30.778;2023-12-20T05:00:36;12.95;;;7.85;;
46447;SDS011;32145;50.390;30.778;2023-12-20T05:03:32;14.52;;;8.27;;
46447;SDS011;32145;50.390;30.778;2023-12-20T05:06:26;13.68;;;8.00;;
46447;SDS011;32145;50.390;30.778;2023-12-20T05:09:23;14.90;;;8.35;;
46447;SDS011;32145;50.390;30.778;2023-12-20T05:12:19;13.32;;;8.18;;
46447;SDS011;32145;50.390;30.778;2023-12-20T05:15:15;13.90;;;7.85;;
46447;SDS011;32145;50.390;30.778;2023-12-20T05:18:13;15.55;;;8.05;;
46447;SDS011;32145;50.390;30.778;2023-12-20T05:21:07;18.38;;;8.25;;
46447;SDS011;32145;50.390;30.778;2023-12-20T05:24:02;16.30;;;8.52;;
46447;SDS011;32145;50.390;30.778;2023-12-20T05:26:56;13.82;;;7.95;;
46447;SDS011;32145;50.390;30.778;2023-12-20T05:29:50;15.30;;;8.23;;
46447;SDS011;32145;50.390;30.778;2023-12-20T05:32:45;15.93;;;8.45;;
46447;SDS011;32145;50.390;30.778;2023-12-20T05:35:40;15.13;;;8.13;;
46447;SDS011;32145;50.390;30.778;2023-12-20T05:38:37;15.43;;;7.18;;
46447;SDS011;32145;50.390;30.778;2023-12-20T05:41:33;12.38;;;7.57;;
46447;SDS011;32145;50.390;30.778;2023-12-20T05:44:29;14.90;;;8.07;;
46447;SDS011;32145;50.390;30.778;2023-12-20T05:47:25;17.63;;;8.25;;
46447;SDS011;32145;50.390;30.778;2023-12-20T05:50:21;14.32;;;7.90;;
46447;SDS011;32145;50.390;30.778;2023-12-20T05:53:19;16.13;;;8.18;;
46447;SDS011;32145;50.390;30.778;2023-12-20T05:56:16;15.80;;;7.90;;
46447;SDS011;32145;50.390;30.778;2023-12-20T05:59:12;16.23;;;8.18;;
46447;SDS011;32145;50.390;30.778;2023-12-20T06:02:08;14.18;;;7.22;;
46447;SDS011;32145;50.390;30.778;2023-12-20T06:05:05;14.48;;;7.47;;
46447;SDS011;32145;50.390;30.778;2023-12-20T06:08:01;14.52;;;7.68;;
46447;SDS011;32145;50.390;30.778;2023-12-20T06:10:57;12.60;;;7.30;;
46447;SDS011;32145;50.390;30.778;2023-12-20T06:13:52;12.70;;;7.50;;
46447;SDS011;32145;50.390;30.778;2023-12-20T06:16:46;12.55;;;7.28;;
46447;SDS011;32145;50.390;30.778;2023-12-20T06:19:40;12.85;;;7.68;;
46447;SDS011;32145;50.390;30.778;2023-12-20T06:22:36;13.63;;;8.07;;
46447;SDS011;32145;50.390;30.778;2023-12-20T06:25:32;15.05;;;7.80;;
46447;SDS011;32145;50.390;30.778;2023-12-20T06:28:28;12.32;;;7.20;;
46447;SDS011;32145;50.390;30.778;2023-12-20T06:31:23;14.85;;;8.10;;
46447;SDS011;32145;50.390;30.778;2023-12-20T06:34:17;14.70;;;8.07;;
46447;SDS011;32145;50.390;30.778;2023-12-20T06:37:11;13.98;;;7.55;;
46447;SDS011;32145;50.390;30.778;2023-12-20T06:40:06;13.70;;;7.55;;
46447;SDS011;32145;50.390;30.778;2023-12-20T06:43:01;14.30;;;7.60;;
46447;SDS011;32145;50.390;30.778;2023-12-20T06:45:56;12.63;;;7.22;;
46447;SDS011;32145;50.390;30.778;2023-12-20T06:48:51;14.48;;;7.90;;
46447;SDS011;32145;50.390;30.778;2023-12-20T06:51:47;14.95;;;7.63;;
46447;SDS011;32145;50.390;30.778;2023-12-20T06:54:43;13.30;;;7.20;;
46447;SDS011;32145;50.390;30.778;2023-12-20T06:57:39;13.00;;;6.93;;
46447;SDS011;32145;50.390;30.778;2023-12-20T07:00:36;17.52;;;7.53;;
46447;SDS011;32145;50.390;30.778;2023-12-20T07:03:33;15.38;;;7.50;;
46447;SDS011;32145;50.390;30.778;2023-12-20T07:06:30;12.52;;;7.07;;
46447;SDS011;32145;50.390;30.778;2023-12-20T07:09:26;15.15;;;7.28;;
46447;SDS011;32145;50.390;30.778;2023-12-20T07:12:20;14.23;;;7.28;;
46447;SDS011;32145;50.390;30.778;2023-12-20T07:15:15;14.50;;;7.03;;
46447;SDS011;32145;50.390;30.778;2023-12-20T07:18:09;16.52;;;7.18;;
46447;SDS011;32145;50.390;30.778;2023-12-20T07:21:04;12.80;;;7.03;;
46447;SDS011;32145;50.390;30.778;2023-12-20T07:23:59;11.52;;;6.57;;
46447;SDS011;32145;50.390;30.778;2023-12-20T07:26:53;14.40;;;7.38;;
46447;SDS011;32145;50.390;30.778;2023-12-20T07:29:47;11.32;;;6.25;;
46447;SDS011;32145;50.390;30.778;2023-12-20T07:32:42;14.60;;;7.50;;
46447;SDS011;32145;50.390;30.778;2023-12-20T07:35:38;13.95;;;7.97;;
46447;SDS011;32145;50.390;30.778;2023-12-20T07:38:35;11.90;;;6.97;;
46447;SDS011;32145;50.390;30.778;2023-12-20T07:41:32;11.25;;;6.22;;
46447;SDS011;32145;50.390;30.778;2023-12-20T07:44:28;12.77;;;6.63;;
46447;SDS011;32145;50.390;30.778;2023-12-20T07:47:24;15.23;;;7.25;;
46447;SDS011;32145;50.390;30.778;2023-12-20T07:50:20;12.02;;;6.80;;
46447;SDS011;32145;50.390;30.778;2023-12-20T07:53:17;12.48;;;6.60;;
46447;SDS011;32145;50.390;30.778;2023-12-20T07:56:15;14.10;;;6.65;;
46447;SDS011;32145;50.390;30.778;2023-12-20T07:59:09;13.43;;;6.60;;
46447;SDS011;32145;50.390;30.778;2023-12-20T08:02:04;12.60;;;6.70;;
46447;SDS011;32145;50.390;30.778;2023-12-20T08:04:58;12.88;;;5.93;;
46447;SDS011;32145;50.390;30.778;2023-12-20T08:07:52;11.82;;;6.18;;
46447;SDS011;32145;50.390;30.778;2023-12-20T08:10:47;12.90;;;7.05;;
46447;SDS011;32145;50.390;30.778;2023-12-20T08:13:42;12.95;;;7.07;;
46447;SDS011;32145;50.390;30.778;2023-12-20T08:16:39;13.35;;;6.82;;
46447;SDS011;32145;50.390;30.778;2023-12-20T08:19:35;12.18;;;6.72;;
46447;SDS011;32145;50.390;30.778;2023-12-20T08:22:31;14.05;;;6.78;;
46447;SDS011;32145;50.390;30.778;2023-12-20T08:25:28;12.75;;;5.53;;
46447;SDS011;32145;50.390;30.778;2023-12-20T08:28:24;11.25;;;6.40;;
46447;SDS011;32145;50.390;30.778;2023-12-20T08:31:21;11.13;;;6.22;;
46447;SDS011;32145;50.390;30.778;2023-12-20T08:34:18;12.00;;;6.20;;
46447;SDS011;32145;50.390;30.778;2023-12-20T08:37:14;11.23;;;6.35;;
46447;SDS011;32145;50.390;30.778;2023-12-20T08:40:11;11.20;;;6.07;;
46447;SDS011;32145;50.390;30.778;2023-12-20T08:43:07;10.60;;;6.03;;
46447;SDS011;32145;50.390;30.778;2023-12-20T08:46:03;12.73;;;6.85;;
46447;SDS011;32145;50.390;30.778;2023-12-20T08:48:59;12.75;;;6.25;;
46447;SDS011;32145;50.390;30.778;2023-12-20T08:51:53;11.30;;;6.50;;
46447;SDS011;32145;50.390;30.778;2023-12-20T08:54:48;10.60;;;6.03;;
46447;SDS011;32145;50.390;30.778;2023-12-20T08:57:42;13.27;;;5.63;;
46447;SDS011;32145;50.390;30.778;2023-12-20T09:00:38;10.48;;;5.40;;
46447;SDS011;32145;50.390;30.778;2023-12-20T09:03:34;12.95;;;6.13;;
46447;SDS011;32145;50.390;30.778;2023-12-20T09:06:32;9.95;;;5.72;;
46447;SDS011;32145;50.390;30.778;2023-12-20T09:09:28;12.30;;;5.80;;
46447;SDS011;32145;50.390;30.778;2023-12-20T09:12:25;12.77;;;6.22;;
46447;SDS011;32145;50.390;30.778;2023-12-20T09:15:21;10.15;;;6.35;;
46447;SDS011;32145;50.390;30.778;2023-12-20T09:18:17;10.95;;;6.13;;
46447;SDS011;32145;50.390;30.778;2023-12-20T09:21:14;12.73;;;5.97;;
46447;SDS011;32145;50.390;30.778;2023-12-20T09:24:12;14.73;;;6.72;;
46447;SDS011;32145;50.390;30.778;2023-12-20T09:27:08;11.95;;;6.47;;
46447;SDS011;32145;50.390;30.778;2023-12-20T09:30:05;9.00;;;5.53;;
46447;SDS011;32145;50.390;30.778;2023-12-20T09:33:02;11.10;;;5.53;;
46447;SDS011;32145;50.390;30.778;2023-12-20T09:35:58;10.07;;;5.10;;
46447;SDS011;32145;50.390;30.778;2023-12-20T09:38:55;11.70;;;6.43;;
46447;SDS011;32145;50.390;30.778;2023-12-20T09:41:56;12.90;;;6.03;;
46447;SDS011;32145;50.390;30.778;2023-12-20T09:44:56;9.25;;;5.43;;
46447;SDS011;32145;50.390;30.778;2023-12-20T09:47:58;13.05;;;6.30;;
46447;SDS011;32145;50.390;30.778;2023-12-20T09:50:54;11.93;;;6.30;;
46447;SDS011;32145;50.390;30.778;2023-12-20T09:53:51;13.00;;;6.07;;
46447;SDS011;32145;50.390;30.778;2023-12-20T09:56:50;10.65;;;5.72;;
46447;SDS011;32145;50.390;30.778;2023-12-20T09:59:48;9.65;;;5.65;;
46447;SDS011;32145;50.390;30.778;2023-12-20T10:02:45;9.13;;;6.22;;
46447;SDS011;32145;50.390;30.778;2023-12-20T10:05:45;10.25;;;5.90;;
46447;SDS011;32145;50.390;30.778;2023-12-20T10:08:43;11.75;;;5.88;;
46447;SDS011;32145;50.390;30.778;2023-12-20T10:11:39;9.93;;;5.72;;
46447;SDS011;32145;50.390;30.778;2023-12-20T10:14:36;8.18;;;4.15;;
46447;SDS011;32145;50.390;30.778;2023-12-20T10:17:35;10.10;;;5.72;;
46447;SDS011;32145;50.390;30.778;2023-12-20T10:20:30;9.57;;;5.50;;
46447;SDS011;32145;50.390;30.778;2023-12-20T10:23:27;9.55;;;5.03;;
46447;SDS011;32145;50.390;30.778;2023-12-20T10:26:24;9.35;;;4.95;;
46447;SDS011;32145;50.390;30.778;2023-12-20T10:29:21;8.13;;;4.72;;
46447;SDS011;32145;50.390;30.778;2023-12-20T10:32:22;9.07;;;5.20;;
46447;SDS011;32145;50.390;30.778;2023-12-20T10:35:21;9.75;;;5.45;;
46447;SDS011;32145;50.390;30.778;2023-12-20T10:38:18;9.65;;;5.30;;
46447;SDS011;32145;50.390;30.778;2023-12-20T10:41:14;10.18;;;5.18;;
46447;SDS011;32145;50.390;30.778;2023-12-20T10:44:12;11.65;;;4.82;;
46447;SDS011;32145;50.390;30.778;2023-12-20T10:47:09;10.95;;;4.88;;
46447;SDS011;32145;50.390;30.778;2023-12-20T10:50:09;10.35;;;5.47;;
46447;SDS011;32145;50.390;30.778;2023-12-20T10:53:07;8.63;;;4.65;;
46447;SDS011;32145;50.390;30.778;2023-12-20T10:56:03;9.15;;;5.20;;
46447;SDS011;32145;50.390;30.778;2023-12-20T10:59:02;8.45;;;4.40;;
46447;SDS011;32145;50.390;30.778;2023-12-20T11:01:58;9.98;;;5.18;;
46447;SDS011;32145;50.390;30.778;2023-12-20T11:04:56;9.80;;;4.78;;
46447;SDS011;32145;50.390;30.778;2023-12-20T11:07:59;9.65;;;4.90;;
46447;SDS011;32145;50.390;30.778;2023-12-20T11:10:59;9.02;;;4.82;;
46447;SDS011;32145;50.390;30.778;2023-12-20T11:14:00;11.52;;;5.05;;
46447;SDS011;32145;50.390;30.778;2023-12-20T11:17:07;7.65;;;4.30;;
46447;SDS011;32145;50.390;30.778;2023-12-20T11:20:06;9.32;;;5.03;;
46447;SDS011;32145;50.390;30.778;2023-12-20T11:23:04;8.65;;;4.93;;
46447;SDS011;32145;50.390;30.778;2023-12-20T11:26:03;7.53;;;4.75;;
46447;SDS011;32145;50.390;30.778;2023-12-20T11:32:29;10.70;;;5.60;;
46447;SDS011;32145;50.390;30.778;2023-12-20T11:38:21;11.88;;;5.57;;
46447;SDS011;32145;50.390;30.778;2023-12-20T11:41:20;9.75;;;5.30;;
46447;SDS011;32145;50.390;30.778;2023-12-20T11:44:20;10.43;;;5.50;;
46447;SDS011;32145;50.390;30.778;2023-12-20T11:47:16;10.60;;;5.85;;
46447;SDS011;32145;50.390;30.778;2023-12-20T11:50:14;10.07;;;5.85;;
46447;SDS011;32145;50.390;30.778;2023-12-20T11:53:10;10.63;;;6.00;;
46447;SDS011;32145;50.390;30.778;2023-12-20T11:56:06;9.27;;;5.28;;
46447;SDS011;32145;50.390;30.778;2023-12-20T11:59:05;8.98;;;5.57;;
46447;SDS011;32145;50.390;30.778;2023-12-20T12:02:04;10.73;;;5.30;;
46447;SDS011;32145;50.390;30.778;2023-12-20T12:05:00;8.93;;;5.30;;
46447;SDS011;32145;50.390;30.778;2023-12-20T12:07:56;11.82;;;5.70;;
46447;SDS011;32145;50.390;30.778;2023-12-20T12:10:52;9.77;;;5.32;;
46447;SDS011;32145;50.390;30.778;2023-12-20T12:13:49;11.52;;;5.60;;
46447;SDS011;32145;50.390;30.778;2023-12-20T12:16:47;10.90;;;5.70;;
46447;SDS011;32145;50.390;30.778;2023-12-20T12:19:42;9.48;;;5.28;;
46447;SDS011;32145;50.390;30.778;2023-12-20T12:22:37;9.32;;;5.20;;
46447;SDS011;32145;50.390;30.778;2023-12-20T12:25:32;10.27;;;5.50;;
46447;SDS011;32145;50.390;30.778;2023-12-20T12:28:28;9.80;;;5.25;;
46447;SDS011;32145;50.390;30.778;2023-12-20T12:31:22;9.85;;;5.28;;
46447;SDS011;32145;50.390;30.778;2023-12-20T12:34:18;11.25;;;5.70;;
46447;SDS011;32145;50.390;30.778;2023-12-20T12:37:12;9.05;;;5.38;;
46447;SDS011;32145;50.390;30.778;2023-12-20T12:40:09;11.00;;;5.90;;
46447;SDS011;32145;50.390;30.778;2023-12-20T12:43:06;8.30;;;5.18;;
46447;SDS011;32145;50.390;30.778;2023-12-20T12:46:03;10.23;;;5.93;;
46447;SDS011;32145;50.390;30.778;2023-12-20T12:49:00;10.70;;;5.47;;
46447;SDS011;32145;50.390;30.778;2023-12-20T12:51:57;9.95;;;5.70;;
46447;SDS011;32145;50.390;30.778;2023-12-20T12:54:53;11.82;;;6.25;;
46447;SDS011;32145;50.390;30.778;2023-12-20T12:57:50;9.20;;;5.63;;
46447;SDS011;32145;50.390;30.778;2023-12-20T13:00:46;9.18;;;5.47;;
46447;SDS011;32145;50.390;30.778;2023-12-20T13:03:42;9.40;;;5.85;;
46447;SDS011;32145;50.390;30.778;2023-12-20T13:06:38;10.95;;;5.88;;
46447;SDS011;32145;50.390;30.778;2023-12-20T13:09:36;12.15;;;6.00;;
46447;SDS011;32145;50.390;30.778;2023-12-20T13:12:31;9.32;;;6.15;;
46447;SDS011;32145;50.390;30.778;2023-12-20T13:15:27;12.85;;;6.30;;
46447;SDS011;32145;50.390;30.778;2023-12-20T13:18:24;13.13;;;6.00;;
46447;SDS011;32145;50.390;30.778;2023-12-20T13:21:20;9.48;;;5.65;;
46447;SDS011;32145;50.390;30.778;2023-12-20T13:24:16;10.65;;;5.82;;
46447;SDS011;32145;50.390;30.778;2023-12-20T13:27:11;10.32;;;5.80;;
46447;SDS011;32145;50.390;30.778;2023-12-20T13:30:06;10.32;;;5.60;;
46447;SDS011;32145;50.390;30.778;2023-12-20T13:33:01;11.40;;;5.95;;
46447;SDS011;32145;50.390;30.778;2023-12-20T13:35:56;10.10;;;5.55;;
46447;SDS011;32145;50.390;30.778;2023-12-20T13:38:50;10.82;;;5.72;;
46447;SDS011;32145;50.390;30.778;2023-12-20T13:41:45;8.95;;;5.40;;
46447;SDS011;32145;50.390;30.778;2023-12-20T13:44:41;10.30;;;5.97;;
46447;SDS011;32145;50.390;30.778;2023-12-20T13:47:35;10.55;;;6.15;;
46447;SDS011;32145;50.390;30.778;2023-12-20T13:50:29;11.40;;;5.88;;
46447;SDS011;32145;50.390;30.778;2023-12-20T13:53:24;15.30;;;6.72;;
46447;SDS011;32145;50.390;30.778;2023-12-20T13:56:20;13.27;;;6.40;;
46447;SDS011;32145;50.390;30.778;2023-12-20T13:59:16;12.88;;;6.50;;
46447;SDS011;32145;50.390;30.778;2023-12-20T14:02:12;13.15;;;6.40;;
46447;SDS011;32145;50.390;30.778;2023-12-20T14:05:07;12.65;;;6.18;;
46447;SDS011;32145;50.390;30.778;2023-12-20T14:08:02;12.07;;;6.03;;
46447;SDS011;32145;50.390;30.778;2023-12-20T14:10:57;12.60;;;7.28;;
46447;SDS011;32145;50.390;30.778;2023-12-20T14:13:51;13.02;;;6.63;;
46447;SDS011;32145;50.390;30.778;2023-12-20T14:16:45;13.70;;;8.00;;
46447;SDS011;32145;50.390;30.778;2023-12-20T14:19:41;16.25;;;8.52;;
46447;SDS011;32145;50.390;30.778;2023-12-20T14:22:35;16.27;;;9.02;;
46447;SDS011;32145;50.390;30.778;2023-12-20T14:25:29;19.52;;;10.40;;
46447;SDS011;32145;50.390;30.778;2023-12-20T14:28:23;21.70;;;10.75;;
46447;SDS011;32145;50.390;30.778;2023-12-20T14:31:20;24.90;;;12.52;;
46447;SDS011;32145;50.390;30.778;2023-12-20T14:34:16;16.27;;;9.45;;
46447;SDS011;32145;50.390;30.778;2023-12-20T14:37:14;17.13;;;10.10;;
46447;SDS011;32145;50.390;30.778;2023-12-20T14:40:10;19.50;;;9.07;;
46447;SDS011;32145;50.390;30.778;2023-12-20T14:43:07;17.10;;;8.43;;
46447;SDS011;32145;50.390;30.778;2023-12-20T14:46:01;17.02;;;8.88;;
46447;SDS011;32145;50.390;30.778;2023-12-20T14:48:55;15.80;;;9.88;;
46447;SDS011;32145;50.390;30.778;2023-12-20T14:51:51;15.23;;;8.80;;
46447;SDS011;32145;50.390;30.778;2023-12-20T14:54:49;16.98;;;8.85;;
46447;SDS011;32145;50.390;30.778;2023-12-20T14:57:46;17.40;;;8.85;;
46447;SDS011;32145;50.390;30.778;2023-12-20T15:00:42;16.33;;;9.20;;
46447;SDS011;32145;50.390;30.778;2023-12-20T15:03:39;16.80;;;9.23;;
46447;SDS011;32145;50.390;30.778;2023-12-20T15:06:36;17.88;;;9.52;;
46447;SDS011;32145;50.390;30.778;2023-12-20T15:09:32;15.18;;;9.02;;
46447;SDS011;32145;50.390;30.778;2023-12-20T15:12:30;14.65;;;8.70;;
46447;SDS011;32145;50.390;30.778;2023-12-20T15:15:27;17.05;;;9.38;;
46447;SDS011;32145;50.390;30.778;2023-12-20T15:18:21;16.75;;;9.02;;
46447;SDS011;32145;50.390;30.778;2023-12-20T15:21:15;19.08;;;9.32;;
46447;SDS011;32145;50.390;30.778;2023-12-20T15:24:12;16.63;;;9.68;;
46447;SDS011;32145;50.390;30.778;2023-12-20T15:27:08;17.90;;;10.07;;
46447;SDS011;32145;50.390;30.778;2023-12-20T15:30:07;15.13;;;9.23;;
46447;SDS011;32145;50.390;30.778;2023-12-20T15:36:01;15.90;;;8.75;;
46447;SDS011;32145;50.390;30.778;2023-12-20T15:38:57;15.00;;;8.75;;
46447;SDS011;32145;50.390;30.778;2023-12-20T15:41:51;19.45;;;10.20;;
46447;SDS011;32145;50.390;30.778;2023-12-20T15:44:46;18.98;;;10.65;;
46447;SDS011;32145;50.390;30.778;2023-12-20T15:47:41;18.45;;;11.07;;
46447;SDS011;32145;50.390;30.778;2023-12-20T15:50:36;21.02;;;11.18;;
46447;SDS011;32145;50.390;30.778;2023-12-20T15:53:30;20.45;;;10.85;;
46447;SDS011;32145;50.390;30.778;2023-12-20T15:56:24;17.35;;;9.77;;
46447;SDS011;32145;50.390;30.778;2023-12-20T15:59:18;18.70;;;10.65;;
46447;SDS011;32145;50.390;30.778;2023-12-20T16:02:13;17.35;;;10.45;;
46447;SDS011;32145;50.390;30.778;2023-12-20T16:05:08;17.67;;;9.90;;
46447;SDS011;32145;50.390;30.778;2023-12-20T16:08:03;19.67;;;10.07;;
46447;SDS011;32145;50.390;30.778;2023-12-20T16:10:58;21.30;;;12.65;;
46447;SDS011;32145;50.390;30.778;2023-12-20T16:13:52;22.17;;;13.80;;
46447;SDS011;32145;50.390;30.778;2023-12-20T16:16:47;26.33;;;16.20;;
46447;SDS011;32145;50.390;30.778;2023-12-20T16:19:41;17.95;;;10.48;;
46447;SDS011;32145;50.390;30.778;2023-12-20T16:22:37;19.13;;;10.82;;
46447;SDS011;32145;50.390;30.778;2023-12-20T16:25:33;17.40;;;9.88;;
46447;SDS011;32145;50.390;30.778;2023-12-20T16:28:30;18.75;;;10.55;;
46447;SDS011;32145;50.390;30.778;2023-12-20T16:31:26;23.70;;;12.15;;
46447;SDS011;32145;50.390;30.778;2023-12-20T16:34:22;19.67;;;11.55;;
46447;SDS011;32145;50.390;30.778;2023-12-20T16:37:18;20.98;;;11.65;;
46447;SDS011;32145;50.390;30.778;2023-12-20T16:40:16;21.23;;;11.02;;
46447;SDS011;32145;50.390;30.778;2023-12-20T16:43:12;18.70;;;10.60;;
46447;SDS011;32145;50.390;30.778;2023-12-20T16:46:09;18.38;;;10.30;;
46447;SDS011;32145;50.390;30.778;2023-12-20T16:49:05;16.98;;;10.07;;
46447;SDS011;32145;50.390;30.778;2023-12-20T16:52:01;18.00;;;10.30;;
46447;SDS011;32145;50.390;30.778;2023-12-20T16:54:58;17.52;;;10.25;;
46447;SDS011;32145;50.390;30.778;2023-12-20T16:57:56;20.08;;;11.05;;
46447;SDS011;32145;50.390;30.778;2023-12-20T17:00:52;20.17;;;11.52;;
46447;SDS011;32145;50.390;30.778;2023-12-20T17:03:48;16.85;;;10.52;;
46447;SDS011;32145;50.390;30.778;2023-12-20T17:06:43;25.08;;;12.75;;
46447;SDS011;32145;50.390;30.778;2023-12-20T17:09:37;20.92;;;12.02;;
46447;SDS011;32145;50.390;30.778;2023-12-20T17:12:31;17.80;;;11.07;;
46447;SDS011;32145;50.390;30.778;2023-12-20T17:15:29;17.33;;;10.25;;
46447;SDS011;32145;50.390;30.778;2023-12-20T17:18:25;40.65;;;16.48;;